createdAt,value
2019-01-22T00:14:30.002Z,58.17
2019-01-22T00:30:03.425Z,78.57
2019-01-22T00:45:37.795Z,41.10
2019-01-22T01:01:11.482Z,46.63
2019-01-22T01:16:44.683Z,31.87
2019-01-22T01:32:17.747Z,27.90
2019-01-22T01:47:51.316Z,27.13
2019-01-22T02:03:23.856Z,23.70
2019-01-22T02:19:03.642Z,32.67
2019-01-22T02:34:45.073Z,21.33
2019-01-22T02:50:44.108Z,24.50
2019-01-22T03:06:24.237Z,17.13
2019-01-22T03:22:06.793Z,11.27
2019-01-22T03:37:47.020Z,17.33
2019-01-22T03:53:26.093Z,13.73
2019-01-22T04:08:59.701Z,11.73
2019-01-22T04:24:47.095Z,8.33
2019-01-22T04:40:28.163Z,14.23
2019-01-22T05:12:31.137Z,14.93
2019-01-22T05:28:13.225Z,18.87
2019-01-22T05:43:57.574Z,13.13
2019-01-22T05:59:45.741Z,8.90
2019-01-22T06:31:38.388Z,12.77
2019-01-22T06:47:19.783Z,12.37
2019-01-22T07:03:02.567Z,8.40
2019-01-22T07:35:08.090Z,4.80
2019-01-22T07:50:45.186Z,14.20
2019-01-22T08:06:20.745Z,13.23
2019-01-22T08:22:18.704Z,12.17
2019-01-22T08:38:01.876Z,6.63
2019-01-22T09:09:53.120Z,8.03
2019-01-22T09:25:33.343Z,10.00
2019-01-22T09:41:06.360Z,6.90
2019-01-22T09:56:39.027Z,4.87
2019-01-22T10:12:12.085Z,6.13
2019-01-22T10:27:45.293Z,6.20
2019-01-22T10:43:18.785Z,5.60
2019-01-22T10:58:51.785Z,8.97
2019-01-22T11:14:24.813Z,7.07
2019-01-22T11:29:57.810Z,9.70
2019-01-22T11:45:31.200Z,7.63
2019-01-22T12:01:04.487Z,9.17
2019-01-22T12:16:38.206Z,7.77
2019-01-22T12:32:11.422Z,6.63
2019-01-22T12:47:44.613Z,18.93
2019-01-22T13:03:17.657Z,6.90
2019-01-22T13:18:50.870Z,17.67
2019-01-22T13:34:24.145Z,8.03
2019-01-22T13:49:57.291Z,11.33
2019-01-22T14:05:31.614Z,15.80
2019-01-22T14:21:04.786Z,6.67
2019-01-22T14:36:38.279Z,7.10
2019-01-22T14:52:11.598Z,11.87
2019-01-22T15:07:44.521Z,15.93
2019-01-22T15:23:17.823Z,10.80
2019-01-22T15:38:51.537Z,5.97
2019-01-22T15:54:24.191Z,9.20
2019-01-22T16:09:57.386Z,11.37
2019-01-22T16:25:31.608Z,12.80
2019-01-22T16:41:04.676Z,13.60
2019-01-22T16:56:37.935Z,19.07
2019-01-22T17:12:10.992Z,20.40
2019-01-22T17:27:44.231Z,24.10
2019-01-22T17:43:17.293Z,30.53
2019-01-22T17:58:50.872Z,10.00
2019-01-22T18:14:23.912Z,23.10
2019-01-22T18:29:57.505Z,20.97
2019-01-22T18:45:32.492Z,27.23
2019-01-22T19:01:05.625Z,25.27
2019-01-22T19:16:39.537Z,24.63
2019-01-22T19:32:14.748Z,30.37
2019-01-22T19:47:47.949Z,15.60
2019-01-22T20:03:20.974Z,18.33
2019-01-22T20:18:54.189Z,24.93
2019-01-22T20:34:27.320Z,25.80
2019-01-22T20:50:00.656Z,24.43
2019-01-22T21:05:36.187Z,26.97
2019-01-22T21:21:09.921Z,19.17
2019-01-22T21:36:43.620Z,23.60
2019-01-22T21:52:16.622Z,30.77
2019-01-22T22:07:49.380Z,36.43
2019-01-22T22:23:22.459Z,18.13
2019-01-22T22:38:55.456Z,12.80
2019-01-22T22:54:28.428Z,12.67
2019-01-22T23:10:01.641Z,16.97
2019-01-22T23:25:34.853Z,20.67
2019-01-22T23:41:08.317Z,21.27
2019-01-22T23:56:41.325Z,33.77
